sensor_id;sensor_type;location;lat;lon;timestamp;P1;durP1;ratioP1;P2;durP2;ratioP2
73852;SDS011;62191;51.548;5.688;2023-03-03T00:01:16;16.20;;;6.57;;
73852;SDS011;62191;51.548;5.688;2023-03-03T00:03:44;16.43;;;7.97;;
73852;SDS011;62191;51.548;5.688;2023-03-03T00:06:12;19.23;;;9.13;;
73852;SDS011;62191;51.548;5.688;2023-03-03T00:08:39;11.73;;;6.03;;
73852;SDS011;62191;51.548;5.688;2023-03-03T00:11:07;12.80;;;5.37;;
73852;SDS011;62191;51.548;5.688;2023-03-03T00:13:48;16.07;;;6.83;;
73852;SDS011;62191;51.548;5.688;2023-03-03T00:16:26;18.77;;;7.97;;
73852;SDS011;62191;51.548;5.688;2023-03-03T00:19:00;11.23;;;6.57;;
73852;SDS011;62191;51.548;5.688;2023-03-03T00:21:28;14.27;;;6.67;;
73852;SDS011;62191;51.548;5.688;2023-03-03T00:26:46;12.30;;;7.13;;
73852;SDS011;62191;51.548;5.688;2023-03-03T00:29:36;12.43;;;6.10;;
73852;SDS011;62191;51.548;5.688;2023-03-03T00:34:54;17.40;;;8.20;;
73852;SDS011;62191;51.548;5.688;2023-03-03T00:37:33;19.77;;;8.57;;
73852;SDS011;62191;51.548;5.688;2023-03-03T00:40:12;10.77;;;6.67;;
73852;SDS011;62191;51.548;5.688;2023-03-03T00:42:45;15.57;;;5.90;;
73852;SDS011;62191;51.548;5.688;2023-03-03T00:45:29;20.33;;;6.60;;
73852;SDS011;62191;51.548;5.688;2023-03-03T00:47:59;12.03;;;7.77;;
73852;SDS011;62191;51.548;5.688;2023-03-03T00:50:33;18.87;;;8.43;;
73852;SDS011;62191;51.548;5.688;2023-03-03T00:53:02;11.90;;;5.47;;
73852;SDS011;62191;51.548;5.688;2023-03-03T00:55:31;15.00;;;6.43;;
73852;SDS011;62191;51.548;5.688;2023-03-03T00:57:59;16.77;;;6.33;;
73852;SDS011;62191;51.548;5.688;2023-03-03T01:00:26;12.47;;;6.90;;
73852;SDS011;62191;51.548;5.688;2023-03-03T01:02:54;14.10;;;5.40;;
73852;SDS011;62191;51.548;5.688;2023-03-03T01:05:21;10.10;;;5.57;;
73852;SDS011;62191;51.548;5.688;2023-03-03T01:07:48;8.73;;;5.57;;
73852;SDS011;62191;51.548;5.688;2023-03-03T01:10:16;11.27;;;5.47;;
73852;SDS011;62191;51.548;5.688;2023-03-03T01:12:43;13.80;;;6.30;;
73852;SDS011;62191;51.548;5.688;2023-03-03T01:15:11;12.97;;;6.33;;
73852;SDS011;62191;51.548;5.688;2023-03-03T01:17:40;8.90;;;5.70;;
73852;SDS011;62191;51.548;5.688;2023-03-03T01:20:09;9.47;;;4.90;;
73852;SDS011;62191;51.548;5.688;2023-03-03T01:22:37;9.40;;;4.87;;
73852;SDS011;62191;51.548;5.688;2023-03-03T01:25:05;8.43;;;5.70;;
73852;SDS011;62191;51.548;5.688;2023-03-03T01:27:34;12.20;;;5.83;;
73852;SDS011;62191;51.548;5.688;2023-03-03T01:30:02;15.77;;;7.13;;
73852;SDS011;62191;51.548;5.688;2023-03-03T01:32:31;10.60;;;6.43;;
73852;SDS011;62191;51.548;5.688;2023-03-03T01:34:58;9.97;;;4.70;;
73852;SDS011;62191;51.548;5.688;2023-03-03T01:37:25;12.90;;;5.90;;
73852;SDS011;62191;51.548;5.688;2023-03-03T01:39:53;15.63;;;6.20;;
73852;SDS011;62191;51.548;5.688;2023-03-03T01:42:21;11.83;;;6.80;;
73852;SDS011;62191;51.548;5.688;2023-03-03T01:45:06;15.43;;;6.20;;
73852;SDS011;62191;51.548;5.688;2023-03-03T01:47:21;10.43;;;5.70;;
73852;SDS011;62191;51.548;5.688;2023-03-03T01:49:52;11.87;;;5.90;;
73852;SDS011;62191;51.548;5.688;2023-03-03T01:52:29;11.47;;;6.10;;
73852;SDS011;62191;51.548;5.688;2023-03-03T01:54:58;12.47;;;5.67;;
73852;SDS011;62191;51.548;5.688;2023-03-03T01:57:26;9.50;;;3.90;;
73852;SDS011;62191;51.548;5.688;2023-03-03T01:59:54;11.83;;;5.70;;
73852;SDS011;62191;51.548;5.688;2023-03-03T02:02:23;13.07;;;5.67;;
73852;SDS011;62191;51.548;5.688;2023-03-03T02:04:52;13.13;;;6.00;;
73852;SDS011;62191;51.548;5.688;2023-03-03T02:07:19;14.13;;;5.10;;
73852;SDS011;62191;51.548;5.688;2023-03-03T02:10:21;12.97;;;5.13;;
73852;SDS011;62191;51.548;5.688;2023-03-03T02:12:35;22.23;;;7.73;;
73852;SDS011;62191;51.548;5.688;2023-03-03T02:15:16;9.73;;;5.00;;
73852;SDS011;62191;51.548;5.688;2023-03-03T02:18:03;8.37;;;4.67;;
73852;SDS011;62191;51.548;5.688;2023-03-03T02:20:41;15.93;;;7.07;;
73852;SDS011;62191;51.548;5.688;2023-03-03T02:23:21;9.87;;;4.23;;
73852;SDS011;62191;51.548;5.688;2023-03-03T02:28:23;17.10;;;5.80;;
73852;SDS011;62191;51.548;5.688;2023-03-03T02:30:56;12.63;;;6.07;;
73852;SDS011;62191;51.548;5.688;2023-03-03T02:33:25;13.90;;;7.13;;
73852;SDS011;62191;51.548;5.688;2023-03-03T02:35:52;12.80;;;6.67;;
73852;SDS011;62191;51.548;5.688;2023-03-03T02:43:50;9.83;;;4.63;;
73852;SDS011;62191;51.548;5.688;2023-03-03T02:46:28;10.77;;;5.43;;
73852;SDS011;62191;51.548;5.688;2023-03-03T02:49:00;22.90;;;9.17;;
73852;SDS011;62191;51.548;5.688;2023-03-03T02:51:27;15.80;;;6.70;;
73852;SDS011;62191;51.548;5.688;2023-03-03T02:53:55;8.87;;;3.97;;
73852;SDS011;62191;51.548;5.688;2023-03-03T02:56:22;6.67;;;5.37;;
73852;SDS011;62191;51.548;5.688;2023-03-03T02:58:49;7.23;;;5.43;;
73852;SDS011;62191;51.548;5.688;2023-03-03T03:01:17;11.00;;;6.13;;
73852;SDS011;62191;51.548;5.688;2023-03-03T03:03:44;19.00;;;5.53;;
73852;SDS011;62191;51.548;5.688;2023-03-03T03:06:12;10.77;;;5.83;;
73852;SDS011;62191;51.548;5.688;2023-03-03T03:08:39;12.23;;;5.43;;
73852;SDS011;62191;51.548;5.688;2023-03-03T03:11:07;17.73;;;6.73;;
73852;SDS011;62191;51.548;5.688;2023-03-03T03:13:34;15.93;;;5.50;;
73852;SDS011;62191;51.548;5.688;2023-03-03T03:16:02;15.40;;;7.47;;
73852;SDS011;62191;51.548;5.688;2023-03-03T03:18:31;17.10;;;8.67;;
73852;SDS011;62191;51.548;5.688;2023-03-03T03:21:04;15.00;;;7.47;;
73852;SDS011;62191;51.548;5.688;2023-03-03T03:23:37;11.70;;;4.53;;
73852;SDS011;62191;51.548;5.688;2023-03-03T03:26:05;12.53;;;4.97;;
73852;SDS011;62191;51.548;5.688;2023-03-03T03:28:33;16.10;;;6.50;;
73852;SDS011;62191;51.548;5.688;2023-03-03T03:31:01;12.97;;;5.33;;
73852;SDS011;62191;51.548;5.688;2023-03-03T03:33:29;12.77;;;6.13;;
73852;SDS011;62191;51.548;5.688;2023-03-03T03:35:57;19.73;;;6.80;;
73852;SDS011;62191;51.548;5.688;2023-03-03T03:38:24;7.03;;;3.97;;
73852;SDS011;62191;51.548;5.688;2023-03-03T03:40:54;15.70;;;5.77;;
73852;SDS011;62191;51.548;5.688;2023-03-03T03:43:21;14.03;;;5.77;;
73852;SDS011;62191;51.548;5.688;2023-03-03T03:45:48;12.13;;;6.40;;
73852;SDS011;62191;51.548;5.688;2023-03-03T03:48:16;9.87;;;5.03;;
73852;SDS011;62191;51.548;5.688;2023-03-03T03:50:45;13.23;;;6.63;;
73852;SDS011;62191;51.548;5.688;2023-03-03T03:53:13;15.33;;;5.40;;
73852;SDS011;62191;51.548;5.688;2023-03-03T03:55:41;15.80;;;6.13;;
73852;SDS011;62191;51.548;5.688;2023-03-03T03:58:15;10.83;;;5.03;;
73852;SDS011;62191;51.548;5.688;2023-03-03T04:03:27;5.47;;;4.57;;
73852;SDS011;62191;51.548;5.688;2023-03-03T04:06:00;7.17;;;4.77;;
73852;SDS011;62191;51.548;5.688;2023-03-03T04:08:33;9.43;;;4.80;;
73852;SDS011;62191;51.548;5.688;2023-03-03T04:11:07;9.03;;;3.73;;
73852;SDS011;62191;51.548;5.688;2023-03-03T04:13:44;9.77;;;5.60;;
73852;SDS011;62191;51.548;5.688;2023-03-03T04:16:17;5.63;;;3.60;;
73852;SDS011;62191;51.548;5.688;2023-03-03T04:18:49;9.93;;;5.07;;
73852;SDS011;62191;51.548;5.688;2023-03-03T04:21:21;11.37;;;6.20;;
73852;SDS011;62191;51.548;5.688;2023-03-03T04:23:56;11.80;;;5.13;;
73852;SDS011;62191;51.548;5.688;2023-03-03T04:26:45;9.43;;;5.30;;
73852;SDS011;62191;51.548;5.688;2023-03-03T04:29:20;7.53;;;3.93;;
73852;SDS011;62191;51.548;5.688;2023-03-03T04:31:50;13.87;;;4.67;;
73852;SDS011;62191;51.548;5.688;2023-03-03T04:34:34;9.83;;;4.40;;
73852;SDS011;62191;51.548;5.688;2023-03-03T04:37:13;6.93;;;4.87;;
73852;SDS011;62191;51.548;5.688;2023-03-03T04:39:44;11.90;;;5.73;;
73852;SDS011;62191;51.548;5.688;2023-03-03T04:42:22;13.43;;;5.90;;
73852;SDS011;62191;51.548;5.688;2023-03-03T04:53:35;7.83;;;4.63;;
73852;SDS011;62191;51.548;5.688;2023-03-03T04:56:07;15.73;;;5.73;;
73852;SDS011;62191;51.548;5.688;2023-03-03T04:58:47;11.77;;;5.33;;
73852;SDS011;62191;51.548;5.688;2023-03-03T05:01:17;8.23;;;4.67;;
73852;SDS011;62191;51.548;5.688;2023-03-03T05:03:44;13.60;;;4.80;;
73852;SDS011;62191;51.548;5.688;2023-03-03T05:06:13;13.57;;;6.63;;
73852;SDS011;62191;51.548;5.688;2023-03-03T05:08:48;11.47;;;4.50;;
73852;SDS011;62191;51.548;5.688;2023-03-03T05:11:51;6.72;;;4.50;;
73852;SDS011;62191;51.548;5.688;2023-03-03T05:17:21;9.23;;;5.13;;
73852;SDS011;62191;51.548;5.688;2023-03-03T05:19:55;10.87;;;4.40;;
73852;SDS011;62191;51.548;5.688;2023-03-03T05:22:35;13.57;;;6.20;;
73852;SDS011;62191;51.548;5.688;2023-03-03T05:25:14;10.60;;;4.33;;
73852;SDS011;62191;51.548;5.688;2023-03-03T05:27:51;12.85;;;6.58;;
73852;SDS011;62191;51.548;5.688;2023-03-03T05:43:35;10.10;;;4.23;;
73852;SDS011;62191;51.548;5.688;2023-03-03T05:46:20;10.17;;;4.40;;
73852;SDS011;62191;51.548;5.688;2023-03-03T05:48:52;12.30;;;4.17;;
73852;SDS011;62191;51.548;5.688;2023-03-03T05:51:28;9.07;;;5.00;;
73852;SDS011;62191;51.548;5.688;2023-03-03T05:54:07;20.33;;;7.00;;
73852;SDS011;62191;51.548;5.688;2023-03-03T05:56:54;11.43;;;5.37;;
73852;SDS011;62191;51.548;5.688;2023-03-03T05:59:30;11.40;;;4.07;;
73852;SDS011;62191;51.548;5.688;2023-03-03T06:02:03;13.63;;;5.57;;
73852;SDS011;62191;51.548;5.688;2023-03-03T06:04:51;9.40;;;3.47;;
73852;SDS011;62191;51.548;5.688;2023-03-03T06:35:57;9.53;;;5.07;;
73852;SDS011;62191;51.548;5.688;2023-03-03T06:38:28;11.30;;;7.13;;
73852;SDS011;62191;51.548;5.688;2023-03-03T06:41:01;23.00;;;6.00;;
73852;SDS011;62191;51.548;5.688;2023-03-03T06:43:41;13.50;;;5.20;;
73852;SDS011;62191;51.548;5.688;2023-03-03T06:46:30;12.97;;;4.60;;
73852;SDS011;62191;51.548;5.688;2023-03-03T06:49:22;12.07;;;5.83;;
73852;SDS011;62191;51.548;5.688;2023-03-03T07:59:59;10.13;;;4.73;;
73852;SDS011;62191;51.548;5.688;2023-03-03T08:58:34;10.17;;;4.13;;
73852;SDS011;62191;51.548;5.688;2023-03-03T09:01:14;8.77;;;3.97;;
73852;SDS011;62191;51.548;5.688;2023-03-03T09:03:43;8.73;;;4.17;;
73852;SDS011;62191;51.548;5.688;2023-03-03T09:06:29;8.23;;;3.37;;
73852;SDS011;62191;51.548;5.688;2023-03-03T09:30:54;7.53;;;3.33;;
73852;SDS011;62191;51.548;5.688;2023-03-03T09:33:39;12.00;;;4.77;;
73852;SDS011;62191;51.548;5.688;2023-03-03T09:55:58;7.27;;;3.37;;
73852;SDS011;62191;51.548;5.688;2023-03-03T09:59:09;6.70;;;3.40;;
73852;SDS011;62191;51.548;5.688;2023-03-03T11:37:28;5.43;;;2.67;;
73852;SDS011;62191;51.548;5.688;2023-03-03T11:40:20;7.40;;;3.10;;
73852;SDS011;62191;51.548;5.688;2023-03-03T12:21:21;5.50;;;2.47;;
73852;SDS011;62191;51.548;5.688;2023-03-03T12:30:04;7.83;;;3.57;;
73852;SDS011;62191;51.548;5.688;2023-03-03T12:43:59;6.27;;;3.23;;
73852;SDS011;62191;51.548;5.688;2023-03-03T12:58:08;7.83;;;3.50;;
73852;SDS011;62191;51.548;5.688;2023-03-03T14:50:46;3.23;;;1.70;;
73852;SDS011;62191;51.548;5.688;2023-03-03T15:35:43;5.30;;;1.30;;
73852;SDS011;62191;51.548;5.688;2023-03-03T16:45:56;1.30;;;1.10;;
73852;SDS011;62191;51.548;5.688;2023-03-03T16:54:25;1.93;;;1.00;;
73852;SDS011;62191;51.548;5.688;2023-03-03T17:04:49;5.13;;;1.03;;
73852;SDS011;62191;51.548;5.688;2023-03-03T17:13:33;2.17;;;1.50;;
73852;SDS011;62191;51.548;5.688;2023-03-03T17:16:21;1.83;;;0.93;;
73852;SDS011;62191;51.548;5.688;2023-03-03T17:25:23;1.90;;;0.93;;
73852;SDS011;62191;51.548;5.688;2023-03-03T17:28:19;0.90;;;0.90;;
73852;SDS011;62191;51.548;5.688;2023-03-03T21:05:59;4.10;;;2.10;;
73852;SDS011;62191;51.548;5.688;2023-03-03T21:16:35;7.83;;;2.00;;
73852;SDS011;62191;51.548;5.688;2023-03-03T21:35:13;1.40;;;1.00;;
73852;SDS011;62191;51.548;5.688;2023-03-03T21:37:55;4.07;;;1.23;;
73852;SDS011;62191;51.548;5.688;2023-03-03T21:40:39;1.93;;;1.73;;
73852;SDS011;62191;51.548;5.688;2023-03-03T21:43:05;2.30;;;1.30;;
73852;SDS011;62191;51.548;5.688;2023-03-03T21:45:32;3.67;;;1.50;;
73852;SDS011;62191;51.548;5.688;2023-03-03T21:48:02;7.03;;;1.53;;
73852;SDS011;62191;51.548;5.688;2023-03-03T21:50:30;6.57;;;1.73;;
73852;SDS011;62191;51.548;5.688;2023-03-03T21:52:59;1.50;;;1.40;;
73852;SDS011;62191;51.548;5.688;2023-03-03T21:55:26;2.33;;;1.70;;
73852;SDS011;62191;51.548;5.688;2023-03-03T21:57:53;2.13;;;1.10;;
73852;SDS011;62191;51.548;5.688;2023-03-03T22:00:21;2.10;;;1.50;;
73852;SDS011;62191;51.548;5.688;2023-03-03T22:02:48;1.27;;;1.13;;
73852;SDS011;62191;51.548;5.688;2023-03-03T22:05:16;1.57;;;0.90;;
73852;SDS011;62191;51.548;5.688;2023-03-03T22:07:43;4.67;;;1.83;;
73852;SDS011;62191;51.548;5.688;2023-03-03T22:10:10;1.47;;;1.00;;
73852;SDS011;62191;51.548;5.688;2023-03-03T22:12:38;2.27;;;1.53;;
73852;SDS011;62191;51.548;5.688;2023-03-03T22:15:05;3.47;;;1.07;;
73852;SDS011;62191;51.548;5.688;2023-03-03T22:17:33;1.97;;;1.17;;
73852;SDS011;62191;51.548;5.688;2023-03-03T22:20:00;1.67;;;1.03;;
73852;SDS011;62191;51.548;5.688;2023-03-03T22:22:27;1.27;;;1.17;;
73852;SDS011;62191;51.548;5.688;2023-03-03T22:24:56;1.27;;;1.17;;
73852;SDS011;62191;51.548;5.688;2023-03-03T22:27:23;7.30;;;2.87;;
73852;SDS011;62191;51.548;5.688;2023-03-03T22:29:51;4.63;;;1.20;;
73852;SDS011;62191;51.548;5.688;2023-03-03T22:32:18;2.07;;;1.30;;
73852;SDS011;62191;51.548;5.688;2023-03-03T22:34:46;3.43;;;1.60;;
73852;SDS011;62191;51.548;5.688;2023-03-03T22:37:13;2.00;;;1.37;;
73852;SDS011;62191;51.548;5.688;2023-03-03T22:39:40;12.17;;;1.97;;
73852;SDS011;62191;51.548;5.688;2023-03-03T22:42:08;1.20;;;1.10;;
73852;SDS011;62191;51.548;5.688;2023-03-03T22:44:35;8.37;;;2.07;;
73852;SDS011;62191;51.548;5.688;2023-03-03T22:47:03;4.30;;;1.90;;
73852;SDS011;62191;51.548;5.688;2023-03-03T22:49:30;3.17;;;2.73;;
73852;SDS011;62191;51.548;5.688;2023-03-03T22:51:57;3.73;;;1.77;;
73852;SDS011;62191;51.548;5.688;2023-03-03T22:54:26;4.20;;;3.20;;
73852;SDS011;62191;51.548;5.688;2023-03-03T22:56:54;2.83;;;1.60;;
73852;SDS011;62191;51.548;5.688;2023-03-03T22:59:21;12.40;;;2.47;;
73852;SDS011;62191;51.548;5.688;2023-03-03T23:01:49;3.33;;;1.13;;
73852;SDS011;62191;51.548;5.688;2023-03-03T23:04:16;2.67;;;2.17;;
73852;SDS011;62191;51.548;5.688;2023-03-03T23:06:45;1.67;;;0.97;;
73852;SDS011;62191;51.548;5.688;2023-03-03T23:09:14;4.80;;;1.77;;
73852;SDS011;62191;51.548;5.688;2023-03-03T23:11:41;2.33;;;1.10;;
73852;SDS011;62191;51.548;5.688;2023-03-03T23:14:08;18.53;;;1.30;;
73852;SDS011;62191;51.548;5.688;2023-03-03T23:16:36;1.53;;;1.30;;
73852;SDS011;62191;51.548;5.688;2023-03-03T23:19:03;16.20;;;1.30;;
73852;SDS011;62191;51.548;5.688;2023-03-03T23:21:33;2.23;;;1.97;;
73852;SDS011;62191;51.548;5.688;2023-03-03T23:24:13;2.47;;;1.20;;
73852;SDS011;62191;51.548;5.688;2023-03-03T23:32:06;2.87;;;1.95;;
73852;SDS011;62191;51.548;5.688;2023-03-03T23:34:35;19.57;;;1.30;;
